Time;durP1;ratioP1;P1;durP2;ratioP2;P2;SDS_P1;SDS_P2;PMS_P1;PMS_P2;Temp;Humidity;BMP_temperature;BMP_pressure;BME280_temperature;BME280_humidity;BME280_pressure;Samples;Min_cycle;Max_cycle;Signal;HPM_P1;HPM_P2
2022/04/22 00:00:25;;;;;;;24.45;15.18;;;;;;;;;;4974465;28;20061;-49
2022/04/22 00:02:51;;;;;;;22.95;14.82;;;;;;;;;;4975776;28;20030;-54
2022/04/22 00:05:17;;;;;;;21.17;14.80;;;;;;;;;;4975536;28;20098;-51
2022/04/22 00:07:44;;;;;;;22.85;14.13;;;;;;;;;;4975159;28;20027;-53
2022/04/22 00:10:11;;;;;;;25.30;15.02;;;;;;;;;;4975321;28;20031;-54
2022/04/22 00:12:37;;;;;;;18.77;13.40;;;;;;;;;;4975684;28;20031;-54
2022/04/22 00:15:04;;;;;;;21.23;14.00;;;;;;;;;;4975061;28;20432;-51
2022/04/22 00:17:30;;;;;;;20.20;15.07;;;;;;;;;;4966760;28;20081;-58
2022/04/22 00:19:56;;;;;;;23.48;14.50;;;;;;;;;;4975519;28;20139;-52
2022/04/22 00:22:23;;;;;;;22.70;15.32;;;;;;;;;;4975247;28;20464;-55
2022/04/22 00:24:50;;;;;;;19.77;14.60;;;;;;;;;;4975516;28;20026;-54
2022/04/22 00:27:16;;;;;;;20.75;15.45;;;;;;;;;;4975706;28;20034;-54
2022/04/22 00:29:42;;;;;;;19.25;14.32;;;;;;;;;;4975023;28;20053;-51
2022/04/22 00:32:08;;;;;;;19.58;14.25;;;;;;;;;;4975433;28;20023;-51
2022/04/22 00:34:34;;;;;;;17.92;13.85;;;;;;;;;;4975236;28;20174;-53
2022/04/22 00:37:00;;;;;;;22.17;14.35;;;;;;;;;;4975153;28;20122;-56
2022/04/22 00:39:26;;;;;;;22.10;13.40;;;;;;;;;;4975632;28;20019;-51
2022/04/22 00:41:52;;;;;;;16.20;12.45;;;;;;;;;;4975155;28;20078;-52
2022/04/22 00:44:19;;;;;;;18.33;12.52;;;;;;;;;;4974830;28;20080;-52
2022/04/22 00:46:45;;;;;;;16.10;11.52;;;;;;;;;;4975187;28;20051;-51
2022/04/22 00:49:11;;;;;;;16.05;12.07;;;;;;;;;;4974891;28;20387;-52
2022/04/22 00:51:38;;;;;;;18.92;12.43;;;;;;;;;;4975139;28;20059;-52
2022/04/22 00:54:05;;;;;;;20.20;13.52;;;;;;;;;;4975302;28;20057;-55
2022/04/22 00:56:31;;;;;;;19.13;11.55;;;;;;;;;;4974806;28;20023;-52
2022/04/22 00:58:58;;;;;;;17.02;11.35;;;;;;;;;;4974760;28;20027;-50
2022/04/22 01:01:24;;;;;;;18.85;11.55;;;;;;;;;;4974746;28;20033;-50
2022/04/22 01:12:06;;;;;;;13.27;9.88;;;;;;;;;;4955393;29;20042;-50
2022/04/22 01:14:32;;;;;;;12.93;9.25;;;;;;;;;;4955695;29;20027;-52
2022/04/22 01:17:00;;;;;;;13.20;9.27;;;;;;;;;;4955516;29;20023;-52
2022/04/22 01:19:27;;;;;;;11.13;8.95;;;;;;;;;;4955290;29;20020;-52
2022/04/22 01:21:53;;;;;;;12.80;8.40;;;;;;;;;;4955804;29;20447;-52
2022/04/22 01:24:19;;;;;;;16.35;8.52;;;;;;;;;;4955201;29;20031;-50
2022/04/22 01:26:46;;;;;;;11.82;8.18;;;;;;;;;;4955232;29;20483;-49
2022/04/22 01:29:14;;;;;;;12.50;8.43;;;;;;;;;;4955539;29;20574;-55
2022/04/22 01:31:40;;;;;;;15.10;8.07;;;;;;;;;;4955152;29;20023;-53
2022/04/22 01:34:06;;;;;;;13.60;7.65;;;;;;;;;;4955245;29;20047;-47
2022/04/22 01:36:32;;;;;;;10.75;7.50;;;;;;;;;;4955090;29;20458;-54
2022/04/22 01:38:59;;;;;;;11.85;8.20;;;;;;;;;;4954805;29;20033;-50
2022/04/22 01:41:27;;;;;;;11.80;7.88;;;;;;;;;;4955130;29;20023;-53
2022/04/22 01:43:53;;;;;;;11.30;7.45;;;;;;;;;;4955023;29;20034;-51
2022/04/22 01:46:19;;;;;;;10.68;8.40;;;;;;;;;;4954826;29;20420;-52
2022/04/22 01:48:45;;;;;;;16.10;8.70;;;;;;;;;;4955222;29;20023;-54
2022/04/22 01:51:11;;;;;;;10.95;7.55;;;;;;;;;;4955069;29;20028;-52
2022/04/22 01:53:37;;;;;;;12.40;7.88;;;;;;;;;;4954965;29;20024;-53
2022/04/22 01:56:04;;;;;;;10.90;7.40;;;;;;;;;;4955210;28;20038;-52
2022/04/22 01:58:30;;;;;;;14.55;7.90;;;;;;;;;;4958957;29;20035;-50
2022/04/22 02:00:56;;;;;;;11.88;7.18;;;;;;;;;;4958576;29;20024;-54
2022/04/22 02:03:22;;;;;;;12.38;7.82;;;;;;;;;;4958824;29;20039;-47
2022/04/22 02:05:48;;;;;;;11.75;6.68;;;;;;;;;;4958734;29;20384;-52
2022/04/22 02:08:15;;;;;;;13.88;7.68;;;;;;;;;;4958286;29;20028;-52
2022/04/22 02:10:41;;;;;;;12.38;7.20;;;;;;;;;;4958705;29;20512;-52
2022/04/22 02:13:08;;;;;;;10.30;7.03;;;;;;;;;;4958346;29;20023;-53
2022/04/22 02:15:34;;;;;;;11.98;7.05;;;;;;;;;;4958417;29;20078;-51
2022/04/22 02:18:01;;;;;;;14.00;7.43;;;;;;;;;;4958268;29;20046;-54
2022/04/22 02:20:27;;;;;;;11.43;6.95;;;;;;;;;;4958106;29;20472;-52
2022/04/22 02:22:53;;;;;;;9.52;6.85;;;;;;;;;;4958458;29;20038;-50
2022/04/22 02:25:19;;;;;;;12.13;7.00;;;;;;;;;;4958157;29;20148;-52
2022/04/22 02:30:30;;;;;;;8.57;6.05;;;;;;;;;;4958156;29;20030;-53
2022/04/22 02:32:57;;;;;;;10.50;6.75;;;;;;;;;;4958288;29;20035;-55
2022/04/22 02:35:23;;;;;;;11.38;6.70;;;;;;;;;;4957529;29;20054;-53
2022/04/22 02:37:49;;;;;;;8.48;5.80;;;;;;;;;;4958232;29;20028;-53
2022/04/22 02:45:26;;;;;;;9.20;6.38;;;;;;;;;;4958437;29;20027;-52
2022/04/22 02:45:47;;;;;;;11.38;6.50;;;;;;;;;;4957822;29;20038;-53
2022/04/22 02:48:13;;;;;;;11.35;6.05;;;;;;;;;;4957442;29;20027;-51
2022/04/22 02:50:39;;;;;;;9.55;6.40;;;;;;;;;;4958023;29;20031;-54
2022/04/22 02:53:06;;;;;;;12.40;6.55;;;;;;;;;;4957908;29;20067;-53
2022/04/22 02:55:32;;;;;;;8.55;5.93;;;;;;;;;;4957651;29;20035;-49
2022/04/22 02:57:58;;;;;;;7.60;5.68;;;;;;;;;;4957755;29;20027;-53
2022/04/22 03:00:24;;;;;;;8.82;6.15;;;;;;;;;;4957701;29;20027;-53
2022/04/22 03:02:51;;;;;;;10.65;6.07;;;;;;;;;;4957246;29;20027;-54
2022/04/22 03:05:17;;;;;;;9.70;5.60;;;;;;;;;;4957478;29;20034;-55
2022/04/22 03:07:43;;;;;;;11.90;6.10;;;;;;;;;;4957067;28;20026;-51
2022/04/22 03:10:10;;;;;;;10.63;5.80;;;;;;;;;;4956454;29;20034;-49
2022/04/22 03:12:36;;;;;;;10.45;6.03;;;;;;;;;;4957694;29;20031;-54
2022/04/22 03:15:03;;;;;;;9.02;5.68;;;;;;;;;;4957414;29;20042;-51
2022/04/22 03:17:30;;;;;;;7.75;5.53;;;;;;;;;;4957112;29;20071;-49
2022/04/22 03:19:56;;;;;;;6.90;5.47;;;;;;;;;;4957100;29;20028;-52
2022/04/22 03:22:22;;;;;;;6.72;5.10;;;;;;;;;;4957693;29;20027;-54
2022/04/22 03:24:48;;;;;;;8.63;5.50;;;;;;;;;;4957055;29;20077;-56
2022/04/22 03:27:15;;;;;;;10.35;5.20;;;;;;;;;;4957333;29;20023;-51
2022/04/22 03:29:41;;;;;;;7.07;5.03;;;;;;;;;;4957173;29;20027;-49
2022/04/22 03:32:10;;;;;;;7.35;4.65;;;;;;;;;;4956839;29;20042;-49
2022/04/22 03:34:36;;;;;;;6.40;4.50;;;;;;;;;;4957386;29;20370;-48
2022/04/22 03:37:03;;;;;;;7.90;5.30;;;;;;;;;;4956781;29;20034;-49
2022/04/22 03:39:29;;;;;;;8.85;5.20;;;;;;;;;;4957110;29;20114;-50
2022/04/22 03:41:55;;;;;;;7.45;5.18;;;;;;;;;;4956737;29;20062;-51
2022/04/22 03:44:21;;;;;;;10.75;6.10;;;;;;;;;;4956812;29;20035;-49
2022/04/22 03:46:47;;;;;;;11.40;6.00;;;;;;;;;;4957181;29;20023;-54
2022/04/22 03:49:13;;;;;;;7.68;5.53;;;;;;;;;;4956888;29;20137;-56
2022/04/22 03:51:39;;;;;;;9.75;5.47;;;;;;;;;;4956751;29;20016;-53
2022/04/22 03:54:05;;;;;;;12.73;6.20;;;;;;;;;;4956995;29;20469;-52
2022/04/22 03:59:17;;;;;;;6.10;5.25;;;;;;;;;;4956600;29;20042;-52
2022/04/22 04:01:43;;;;;;;11.45;5.78;;;;;;;;;;4956694;29;20027;-55
2022/04/22 04:04:10;;;;;;;8.23;5.05;;;;;;;;;;4955670;29;20023;-55
2022/04/22 04:06:36;;;;;;;9.23;5.50;;;;;;;;;;4955974;29;20027;-59
2022/04/22 04:17:17;;;;;;;7.72;5.03;;;;;;;;;;4975364;28;20034;-52
2022/04/22 04:25:12;;;;;;;7.65;4.80;;;;;;;;;;4975586;28;20077;-53
2022/04/22 04:27:39;;;;;;;10.48;5.80;;;;;;;;;;4974854;28;20027;-62
2022/04/22 04:30:07;;;;;;;8.73;5.13;;;;;;;;;;4974880;28;20029;-53
2022/04/22 04:32:34;;;;;;;8.48;5.13;;;;;;;;;;4975353;28;20114;-53
2022/04/22 04:35:00;;;;;;;8.80;5.00;;;;;;;;;;4975286;28;20046;-51
2022/04/22 04:37:26;;;;;;;11.18;5.57;;;;;;;;;;4975039;28;20031;-49
2022/04/22 04:39:55;;;;;;;9.65;5.80;;;;;;;;;;4975530;28;20109;-48
2022/04/22 04:42:23;;;;;;;10.02;5.85;;;;;;;;;;4974651;28;20038;-54
2022/04/22 04:44:50;;;;;;;9.45;5.45;;;;;;;;;;4975122;28;20448;-48
2022/04/22 04:47:17;;;;;;;9.27;5.78;;;;;;;;;;4974857;28;20027;-52
2022/04/22 04:49:43;;;;;;;9.55;6.25;;;;;;;;;;4974838;28;20412;-53
2022/04/22 04:52:09;;;;;;;12.13;7.43;;;;;;;;;;4975061;28;20439;-50
2022/04/22 04:54:35;;;;;;;16.15;8.57;;;;;;;;;;4974327;28;20037;-50
2022/04/22 04:57:01;;;;;;;14.93;7.43;;;;;;;;;;4975304;28;20101;-50
2022/04/22 04:59:27;;;;;;;10.10;6.63;;;;;;;;;;4975006;28;20022;-48
2022/04/22 05:01:53;;;;;;;10.98;6.38;;;;;;;;;;4974469;28;20027;-48
2022/04/22 05:04:20;;;;;;;14.30;7.85;;;;;;;;;;4974831;28;20037;-52
2022/04/22 05:06:46;;;;;;;15.18;9.15;;;;;;;;;;4974851;28;20019;-47
2022/04/22 05:09:12;;;;;;;18.08;9.75;;;;;;;;;;4974569;28;20023;-50
2022/04/22 05:11:38;;;;;;;14.52;7.80;;;;;;;;;;4974712;28;20030;-52
2022/04/22 05:14:04;;;;;;;13.60;6.75;;;;;;;;;;4974445;28;20030;-49
2022/04/22 05:16:30;;;;;;;9.18;6.63;;;;;;;;;;4974490;28;20562;-49
2022/04/22 05:18:56;;;;;;;9.48;6.82;;;;;;;;;;4974198;28;20066;-53
2022/04/22 05:21:22;;;;;;;10.55;6.63;;;;;;;;;;4972787;28;20078;-52
2022/04/22 05:23:49;;;;;;;9.95;6.20;;;;;;;;;;4972773;28;20109;-54
2022/04/22 05:26:15;;;;;;;13.77;6.18;;;;;;;;;;4974633;28;20031;-48
2022/04/22 05:28:41;;;;;;;8.77;6.30;;;;;;;;;;4974289;28;20031;-54
2022/04/22 05:33:52;;;;;;;7.88;4.82;;;;;;;;;;4978119;28;20058;-53
2022/04/22 05:36:19;;;;;;;9.38;5.72;;;;;;;;;;4978070;28;20170;-53
2022/04/22 05:38:45;;;;;;;9.73;5.57;;;;;;;;;;4978364;28;20027;-49
2022/04/22 05:41:11;;;;;;;9.85;5.90;;;;;;;;;;4978109;28;20031;-53
2022/04/22 05:43:37;;;;;;;9.38;5.72;;;;;;;;;;4977690;28;20030;-51
2022/04/22 05:46:04;;;;;;;10.63;5.63;;;;;;;;;;4977678;28;20022;-53
2022/04/22 05:48:30;;;;;;;12.52;5.80;;;;;;;;;;4978041;28;20027;-53
2022/04/22 05:50:56;;;;;;;7.65;5.63;;;;;;;;;;4977893;28;20042;-49
2022/04/22 05:53:22;;;;;;;7.10;5.10;;;;;;;;;;4977587;28;20027;-54
2022/04/22 05:55:48;;;;;;;11.93;6.00;;;;;;;;;;4977744;28;20035;-52
2022/04/22 05:58:14;;;;;;;9.68;5.43;;;;;;;;;;4977602;28;20033;-57
2022/04/22 06:00:40;;;;;;;8.43;5.85;;;;;;;;;;4977742;28;20487;-52
2022/04/22 06:03:07;;;;;;;8.85;5.28;;;;;;;;;;4978382;28;20027;-50
2022/04/22 06:05:33;;;;;;;11.25;6.45;;;;;;;;;;4977778;28;20035;-55
2022/04/22 06:11:00;;;;;;;11.40;5.20;;;;;;;;;;4940856;28;20031;-54
2022/04/22 06:13:26;;;;;;;12.15;5.28;;;;;;;;;;4977961;28;20241;-52
2022/04/22 06:15:52;;;;;;;7.75;5.28;;;;;;;;;;4977544;28;20045;-53
2022/04/22 06:18:18;;;;;;;8.88;5.57;;;;;;;;;;4977177;28;20467;-54
2022/04/22 06:20:44;;;;;;;9.07;5.68;;;;;;;;;;4977660;28;20019;-54
2022/04/22 06:23:11;;;;;;;8.93;5.22;;;;;;;;;;4977653;28;20051;-54
2022/04/22 06:25:37;;;;;;;12.18;5.55;;;;;;;;;;4977369;28;20027;-55
2022/04/22 06:28:05;;;;;;;9.25;5.35;;;;;;;;;;4977936;28;20535;-52
2022/04/22 06:30:31;;;;;;;7.22;4.65;;;;;;;;;;4977642;28;20015;-48
2022/04/22 06:32:58;;;;;;;12.02;5.03;;;;;;;;;;4976210;28;20023;-54
2022/04/22 06:35:25;;;;;;;8.68;5.43;;;;;;;;;;4968227;28;20077;-49
2022/04/22 06:37:52;;;;;;;5.80;4.18;;;;;;;;;;4977552;28;20050;-52
2022/04/22 06:45:52;;;;;;;14.38;8.52;;;;;;;;;;4977037;28;20089;-54
2022/04/22 06:48:36;;;;;;;64.38;30.52;;;;;;;;;;4976590;28;20019;-54
2022/04/22 06:51:07;;;;;;;21.15;13.57;;;;;;;;;;4975854;28;20405;-53
2022/04/22 06:53:33;;;;;;;9.70;6.17;;;;;;;;;;4975910;28;20050;-52
2022/04/22 06:56:01;;;;;;;8.15;5.05;;;;;;;;;;4974695;28;20031;-49
2022/04/22 06:58:30;;;;;;;9.98;4.35;;;;;;;;;;4976513;28;20019;-51
2022/04/22 07:00:56;;;;;;;10.80;5.82;;;;;;;;;;4976142;28;20033;-54
2022/04/22 07:03:23;;;;;;;19.88;10.48;;;;;;;;;;4970012;28;20068;-54
2022/04/22 07:05:51;;;;;;;12.40;7.38;;;;;;;;;;4967417;28;20036;-58
2022/04/22 07:08:18;;;;;;;10.13;7.28;;;;;;;;;;4965785;28;20019;-52
2022/04/22 07:10:45;;;;;;;12.20;7.43;;;;;;;;;;4966799;28;20379;-51
2022/04/22 07:13:12;;;;;;;10.82;8.48;;;;;;;;;;4957158;29;20034;-52
2022/04/22 07:15:41;;;;;;;8.48;4.90;;;;;;;;;;4970459;28;20118;-61
2022/04/22 07:18:08;;;;;;;9.45;5.25;;;;;;;;;;4986059;28;20106;-52
2022/04/22 07:20:34;;;;;;;12.98;4.70;;;;;;;;;;4975989;28;20039;-48
2022/04/22 07:23:00;;;;;;;8.63;4.93;;;;;;;;;;4983855;28;20498;-53
2022/04/22 07:25:27;;;;;;;8.80;4.88;;;;;;;;;;4984610;28;20499;-48
2022/04/22 07:27:54;;;;;;;6.28;4.82;;;;;;;;;;4983657;28;20600;-53
2022/04/22 07:30:21;;;;;;;10.68;4.53;;;;;;;;;;4985577;28;20037;-49
2022/04/22 07:32:48;;;;;;;9.20;4.45;;;;;;;;;;4985702;28;20027;-51
2022/04/22 07:35:15;;;;;;;8.38;4.60;;;;;;;;;;4983651;28;20057;-50
2022/04/22 07:37:43;;;;;;;8.00;4.50;;;;;;;;;;4984079;28;20365;-50
2022/04/22 07:40:09;;;;;;;10.30;4.78;;;;;;;;;;4984231;28;20502;-50
2022/04/22 07:42:36;;;;;;;13.32;4.63;;;;;;;;;;4977804;28;20031;-52
2022/04/22 07:47:51;;;;;;;10.73;4.57;;;;;;;;;;4973665;28;20062;-47
2022/04/22 07:50:20;;;;;;;7.22;4.40;;;;;;;;;;4974707;28;20039;-48
2022/04/22 07:52:47;;;;;;;7.68;5.07;;;;;;;;;;4980732;28;20085;-53
2022/04/22 07:55:14;;;;;;;14.20;5.65;;;;;;;;;;4977503;28;20624;-53
2022/04/22 07:57:41;;;;;;;8.45;4.70;;;;;;;;;;4984492;28;20076;-51
2022/04/22 08:00:10;;;;;;;14.27;8.55;;;;;;;;;;4989239;28;20034;-51
2022/04/22 08:02:40;;;;;;;8.07;5.88;;;;;;;;;;4987336;28;20176;-52
2022/04/22 08:05:08;;;;;;;7.00;4.32;;;;;;;;;;4955210;29;20472;-49
2022/04/22 08:07:34;;;;;;;7.93;4.00;;;;;;;;;;4959401;28;20074;-49
2022/04/22 08:10:00;;;;;;;6.13;4.00;;;;;;;;;;4978834;28;20534;-50
2022/04/22 08:12:27;;;;;;;6.57;4.00;;;;;;;;;;4975502;28;20031;-52
2022/04/22 08:14:53;;;;;;;6.75;3.75;;;;;;;;;;4957391;28;20042;-54
2022/04/22 08:17:19;;;;;;;7.93;3.80;;;;;;;;;;4956014;29;20106;-51
2022/04/22 08:19:46;;;;;;;13.48;4.38;;;;;;;;;;4954412;29;20106;-49
2022/04/22 08:22:12;;;;;;;9.75;3.85;;;;;;;;;;4955939;29;20027;-49
2022/04/22 08:24:39;;;;;;;13.38;4.10;;;;;;;;;;4961796;28;20483;-49
2022/04/22 08:27:06;;;;;;;18.38;4.80;;;;;;;;;;4995131;28;20018;-53
2022/04/22 08:29:33;;;;;;;6.40;3.70;;;;;;;;;;4986760;28;20018;-49
2022/04/22 08:31:59;;;;;;;10.52;3.22;;;;;;;;;;4981434;28;20065;-54
2022/04/22 08:34:25;;;;;;;8.30;4.00;;;;;;;;;;4982801;28;20042;-51
2022/04/22 08:36:51;;;;;;;6.47;3.35;;;;;;;;;;4982720;28;20026;-48
2022/04/22 08:39:17;;;;;;;5.88;3.65;;;;;;;;;;4984880;28;20018;-54
2022/04/22 08:41:44;;;;;;;7.05;3.08;;;;;;;;;;4984025;28;20027;-51
2022/04/22 08:44:13;;;;;;;5.72;3.08;;;;;;;;;;4981170;28;20098;-49
2022/04/22 08:52:11;;;;;;;10.60;3.78;;;;;;;;;;4983057;28;20114;-51
2022/04/22 08:54:43;;;;;;;3.70;3.00;;;;;;;;;;4982723;28;20023;-56
2022/04/22 08:57:10;;;;;;;8.40;3.30;;;;;;;;;;4984158;28;20025;-55
2022/04/22 08:59:36;;;;;;;14.00;4.25;;;;;;;;;;4984025;28;20019;-51
2022/04/22 09:02:03;;;;;;;5.82;3.70;;;;;;;;;;4981979;28;20038;-56
2022/04/22 09:04:29;;;;;;;5.40;3.58;;;;;;;;;;4981552;28;20026;-53
2022/04/22 09:06:56;;;;;;;8.77;4.43;;;;;;;;;;4984650;28;20022;-54
2022/04/22 09:09:23;;;;;;;9.27;3.90;;;;;;;;;;4974860;28;20397;-52
2022/04/22 09:11:50;;;;;;;9.13;3.45;;;;;;;;;;4981355;28;20115;-56
2022/04/22 09:14:20;;;;;;;13.07;3.70;;;;;;;;;;4983046;28;20023;-55
2022/04/22 09:16:47;;;;;;;8.65;3.05;;;;;;;;;;4984738;28;20019;-57
2022/04/22 09:19:13;;;;;;;12.88;4.03;;;;;;;;;;4989135;28;20026;-51
2022/04/22 09:21:39;;;;;;;11.60;3.65;;;;;;;;;;4993605;28;20027;-53
2022/04/22 09:24:13;;;;;;;6.95;3.65;;;;;;;;;;4958718;28;20018;-52
2022/04/22 09:26:39;;;;;;;10.68;3.90;;;;;;;;;;4980876;28;20023;-53
2022/04/22 09:29:06;;;;;;;11.77;3.85;;;;;;;;;;4982797;28;20057;-55
2022/04/22 09:31:52;;;;;;;8.65;3.42;;;;;;;;;;4983227;28;20074;-52
2022/04/22 09:34:37;;;;;;;8.38;4.00;;;;;;;;;;4982724;28;20799;-51
2022/04/22 09:42:47;;;;;;;8.73;3.75;;;;;;;;;;4980081;28;20031;-52
2022/04/22 09:45:14;;;;;;;10.13;3.33;;;;;;;;;;4981827;28;20022;-56
2022/04/22 09:47:41;;;;;;;7.35;3.10;;;;;;;;;;4983635;28;20098;-53
2022/04/22 09:50:11;;;;;;;7.93;3.30;;;;;;;;;;4978555;28;20054;-54
2022/04/22 09:52:46;;;;;;;7.25;3.22;;;;;;;;;;4974470;28;20030;-54
2022/04/22 09:55:15;;;;;;;11.88;3.88;;;;;;;;;;4976966;28;20383;-53
2022/04/22 09:57:57;;;;;;;13.98;4.53;;;;;;;;;;4993496;28;20027;-52
2022/04/22 10:00:25;;;;;;;9.18;3.10;;;;;;;;;;4993625;28;20108;-54
2022/04/22 10:02:52;;;;;;;10.02;2.92;;;;;;;;;;4993166;28;20475;-52
2022/04/22 10:05:19;;;;;;;9.32;4.95;;;;;;;;;;4992388;28;20035;-50
2022/04/22 10:07:45;;;;;;;5.25;3.03;;;;;;;;;;4993172;28;20022;-50
2022/04/22 10:10:12;;;;;;;21.02;3.65;;;;;;;;;;4993241;28;20034;-52
2022/04/22 10:12:38;;;;;;;6.47;2.90;;;;;;;;;;4993325;28;20488;-51
2022/04/22 10:15:09;;;;;;;9.93;3.20;;;;;;;;;;4983859;28;20039;-51
2022/04/22 10:17:39;;;;;;;5.70;2.63;;;;;;;;;;4974275;28;20031;-51
2022/04/22 10:20:07;;;;;;;7.75;3.22;;;;;;;;;;4977690;28;20050;-50
2022/04/22 10:22:34;;;;;;;10.77;2.65;;;;;;;;;;4977386;28;20035;-52
2022/04/22 10:25:03;;;;;;;10.60;2.63;;;;;;;;;;4977313;28;20027;-53
2022/04/22 10:27:36;;;;;;;8.60;2.92;;;;;;;;;;4977091;28;20026;-50
2022/04/22 10:30:04;;;;;;;7.25;2.90;;;;;;;;;;4976607;28;20034;-53
2022/04/22 10:32:33;;;;;;;5.80;2.78;;;;;;;;;;4977604;28;20157;-50
2022/04/22 10:35:00;;;;;;;11.50;2.90;;;;;;;;;;4977293;28;20051;-51
2022/04/22 10:37:27;;;;;;;13.02;2.80;;;;;;;;;;4976784;28;20488;-51
2022/04/22 10:39:56;;;;;;;9.13;3.13;;;;;;;;;;4976942;28;20027;-53
2022/04/22 10:42:33;;;;;;;9.32;3.15;;;;;;;;;;4976903;28;20023;-51
2022/04/22 10:47:48;;;;;;;9.75;3.00;;;;;;;;;;4977228;28;20093;-49
2022/04/22 10:50:25;;;;;;;8.05;3.60;;;;;;;;;;4976983;28;20042;-51
2022/04/22 10:53:04;;;;;;;11.82;3.95;;;;;;;;;;4957413;29;20035;-47
2022/04/22 10:55:31;;;;;;;8.48;3.13;;;;;;;;;;4957767;29;20035;-52
2022/04/22 10:58:16;;;;;;;6.40;3.30;;;;;;;;;;4957631;29;20035;-53
2022/04/22 11:00:43;;;;;;;12.13;3.47;;;;;;;;;;4957486;29;20028;-50
2022/04/22 11:03:19;;;;;;;9.27;4.72;;;;;;;;;;4957350;29;20375;-51
2022/04/22 11:05:53;;;;;;;18.17;8.43;;;;;;;;;;4957433;29;20023;-52
2022/04/22 11:08:25;;;;;;;18.13;8.15;;;;;;;;;;4957564;29;20043;-50
2022/04/22 11:10:51;;;;;;;12.00;5.68;;;;;;;;;;4957296;29;20039;-55
2022/04/22 11:13:33;;;;;;;15.27;4.28;;;;;;;;;;4957148;28;20031;-53
2022/04/22 11:16:00;;;;;;;8.13;4.00;;;;;;;;;;4983854;28;20037;-49
2022/04/22 11:18:27;;;;;;;12.88;3.90;;;;;;;;;;4985940;28;20042;-51
2022/04/22 11:20:59;;;;;;;14.15;3.28;;;;;;;;;;4985363;28;20026;-50
2022/04/22 11:23:33;;;;;;;12.65;2.85;;;;;;;;;;4982227;28;20030;-50
2022/04/22 11:26:00;;;;;;;11.10;3.13;;;;;;;;;;4984338;28;20080;-51
2022/04/22 11:28:32;;;;;;;11.07;2.78;;;;;;;;;;4985556;28;20023;-53
2022/04/22 11:31:02;;;;;;;17.58;3.58;;;;;;;;;;4981972;28;20026;-47
2022/04/22 11:33:35;;;;;;;6.95;3.00;;;;;;;;;;4985319;28;20026;-54
2022/04/22 11:36:05;;;;;;;12.32;3.10;;;;;;;;;;4989025;28;20030;-54
2022/04/22 11:38:35;;;;;;;10.70;3.45;;;;;;;;;;4980820;28;20047;-54
2022/04/22 11:41:05;;;;;;;7.05;3.38;;;;;;;;;;4980903;28;20027;-53
2022/04/22 11:43:33;;;;;;;7.40;3.50;;;;;;;;;;4981450;28;20015;-54
2022/04/22 11:45:59;;;;;;;6.93;3.03;;;;;;;;;;4982447;28;20026;-52
2022/04/22 11:48:26;;;;;;;13.43;3.90;;;;;;;;;;4985013;28;20018;-53
2022/04/22 11:50:55;;;;;;;12.23;2.67;;;;;;;;;;4983911;28;20019;-51
2022/04/22 11:53:24;;;;;;;8.57;4.00;;;;;;;;;;4989606;28;20459;-51
2022/04/22 11:55:50;;;;;;;7.72;3.08;;;;;;;;;;4984940;28;20066;-52
2022/04/22 11:58:21;;;;;;;9.63;3.80;;;;;;;;;;4982338;28;20033;-54
2022/04/22 12:06:17;;;;;;;18.42;4.20;;;;;;;;;;4982775;28;20058;-53
2022/04/22 12:08:56;;;;;;;12.02;5.05;;;;;;;;;;4982720;28;20030;-51
2022/04/22 12:11:23;;;;;;;11.50;4.05;;;;;;;;;;4956048;29;20026;-49
2022/04/22 12:13:50;;;;;;;8.10;3.63;;;;;;;;;;4959608;28;20385;-52
2022/04/22 12:16:19;;;;;;;14.27;3.75;;;;;;;;;;4982531;28;20026;-55
2022/04/22 12:18:50;;;;;;;7.95;3.30;;;;;;;;;;4984171;28;20014;-50
2022/04/22 12:21:17;;;;;;;11.40;3.00;;;;;;;;;;4974391;28;20078;-51
2022/04/22 12:23:44;;;;;;;12.65;3.55;;;;;;;;;;4972886;28;20041;-53
2022/04/22 12:26:20;;;;;;;9.18;3.45;;;;;;;;;;4982684;28;20515;-53
2022/04/22 12:28:59;;;;;;;10.68;3.33;;;;;;;;;;4993892;28;20475;-50
2022/04/22 12:31:26;;;;;;;10.02;2.45;;;;;;;;;;4994697;28;20035;-51
2022/04/22 12:33:58;;;;;;;10.45;2.53;;;;;;;;;;4994438;28;20043;-52
2022/04/22 12:36:24;;;;;;;12.32;2.35;;;;;;;;;;4994021;28;20034;-53
2022/04/22 12:38:50;;;;;;;11.20;3.13;;;;;;;;;;4993896;28;20022;-52
2022/04/22 12:41:26;;;;;;;8.32;2.35;;;;;;;;;;4992061;28;20105;-51
2022/04/22 12:43:54;;;;;;;14.02;2.55;;;;;;;;;;4976921;28;20027;-50
2022/04/22 12:52:09;;;;;;;10.20;2.45;;;;;;;;;;4974851;28;20062;-55
2022/04/22 12:54:35;;;;;;;12.02;3.10;;;;;;;;;;4973986;28;20376;-51
2022/04/22 12:57:01;;;;;;;7.78;2.83;;;;;;;;;;4973132;28;20031;-53
2022/04/22 12:59:59;;;;;;;9.32;2.70;;;;;;;;;;4987335;28;20106;-53
2022/04/22 13:02:30;;;;;;;12.93;2.22;;;;;;;;;;4950746;28;20038;-49
2022/04/22 13:05:04;;;;;;;8.52;2.50;;;;;;;;;;4994050;28;20032;-50
2022/04/22 13:07:44;;;;;;;10.75;3.10;;;;;;;;;;4994102;28;20030;-56
2022/04/22 13:10:11;;;;;;;5.95;2.08;;;;;;;;;;4993483;28;20538;-49
2022/04/22 13:12:39;;;;;;;9.68;3.03;;;;;;;;;;4993923;28;20030;-48
2022/04/22 13:15:19;;;;;;;5.90;2.35;;;;;;;;;;4987421;28;20419;-49
2022/04/22 13:17:48;;;;;;;8.77;2.65;;;;;;;;;;4975093;28;20051;-48
2022/04/22 13:20:15;;;;;;;9.90;2.80;;;;;;;;;;4974989;28;20026;-49
2022/04/22 13:22:42;;;;;;;14.73;2.90;;;;;;;;;;4974191;28;20030;-53
2022/04/22 13:25:10;;;;;;;7.10;2.30;;;;;;;;;;4974786;28;20463;-48
2022/04/22 13:27:36;;;;;;;8.35;3.25;;;;;;;;;;4974118;28;20063;-52
2022/04/22 13:30:03;;;;;;;7.88;2.63;;;;;;;;;;4974483;28;20523;-53
2022/04/22 13:32:29;;;;;;;14.27;3.10;;;;;;;;;;4974370;28;20519;-53
2022/04/22 13:34:55;;;;;;;10.07;3.33;;;;;;;;;;4974747;28;20051;-55
2022/04/22 13:37:22;;;;;;;6.47;2.60;;;;;;;;;;4977803;28;20507;-53
2022/04/22 13:39:48;;;;;;;9.55;2.75;;;;;;;;;;4974325;28;20033;-50
2022/04/22 13:42:15;;;;;;;8.00;2.50;;;;;;;;;;4974956;28;20030;-51
2022/04/22 13:52:56;;;;;;;19.67;3.63;;;;;;;;;;4975677;28;20384;-50
2022/04/22 13:55:22;;;;;;;13.15;3.08;;;;;;;;;;4991901;28;20493;-49
2022/04/22 13:57:48;;;;;;;10.18;3.30;;;;;;;;;;4997491;28;20455;-53
2022/04/22 14:00:15;;;;;;;13.75;2.97;;;;;;;;;;4997666;28;20026;-54
2022/04/22 14:02:41;;;;;;;16.60;2.92;;;;;;;;;;4983339;28;20476;-50
2022/04/22 14:05:07;;;;;;;10.02;2.55;;;;;;;;;;4977835;28;20038;-53
2022/04/22 14:07:34;;;;;;;16.80;3.70;;;;;;;;;;4978194;28;20026;-50
2022/04/22 14:10:00;;;;;;;10.27;2.80;;;;;;;;;;4977331;28;20399;-54
2022/04/22 14:12:26;;;;;;;14.18;2.85;;;;;;;;;;4977592;28;20019;-54
2022/04/22 14:14:52;;;;;;;11.65;3.25;;;;;;;;;;4978150;28;20167;-52
2022/04/22 14:17:19;;;;;;;8.60;2.42;;;;;;;;;;4977976;28;20106;-53
2022/04/22 14:19:46;;;;;;;7.95;2.33;;;;;;;;;;4977441;28;20034;-53
2022/04/22 14:22:12;;;;;;;20.30;3.65;;;;;;;;;;4977829;28;20023;-54
2022/04/22 14:24:39;;;;;;;13.40;2.78;;;;;;;;;;4995092;28;20097;-53
2022/04/22 14:27:07;;;;;;;9.63;2.53;;;;;;;;;;4996709;28;20031;-51
2022/04/22 14:29:33;;;;;;;12.95;3.10;;;;;;;;;;4997316;28;20053;-53
2022/04/22 14:32:00;;;;;;;17.67;4.80;;;;;;;;;;4996309;28;20380;-49
2022/04/22 14:34:26;;;;;;;15.32;3.33;;;;;;;;;;4995875;28;20046;-49
2022/04/22 14:36:53;;;;;;;14.57;2.80;;;;;;;;;;4996861;28;20062;-49
2022/04/22 14:39:19;;;;;;;16.58;3.75;;;;;;;;;;4996689;28;20022;-50
2022/04/22 14:41:45;;;;;;;16.40;3.50;;;;;;;;;;4996800;28;20026;-49
2022/04/22 14:44:14;;;;;;;12.57;2.92;;;;;;;;;;4996539;28;20027;-50
2022/04/22 14:46:41;;;;;;;12.25;3.35;;;;;;;;;;4988385;28;20479;-47
2022/04/22 14:49:07;;;;;;;11.10;2.95;;;;;;;;;;4987488;28;20076;-48
2022/04/22 14:51:34;;;;;;;16.95;3.20;;;;;;;;;;4984830;28;20030;-51
2022/04/22 14:54:00;;;;;;;11.32;2.78;;;;;;;;;;4996180;28;20027;-49
2022/04/22 14:56:29;;;;;;;15.38;3.80;;;;;;;;;;4995736;28;20394;-51
2022/04/22 14:58:55;;;;;;;9.73;3.20;;;;;;;;;;4993922;28;20022;-53
2022/04/22 15:01:21;;;;;;;16.00;3.25;;;;;;;;;;4975962;28;20023;-53
2022/04/22 15:03:47;;;;;;;8.05;2.83;;;;;;;;;;4976539;28;20423;-51
2022/04/22 15:06:13;;;;;;;12.98;3.20;;;;;;;;;;4976985;28;20022;-50
2022/04/22 15:08:39;;;;;;;9.05;2.80;;;;;;;;;;4976853;28;20019;-52
2022/04/22 15:11:06;;;;;;;11.63;3.75;;;;;;;;;;4976533;28;20077;-48
2022/04/22 15:13:32;;;;;;;14.77;3.55;;;;;;;;;;4976376;28;20054;-51
2022/04/22 15:15:59;;;;;;;11.57;2.60;;;;;;;;;;4976378;28;20038;-53
2022/04/22 15:24:10;;;;;;;15.82;3.20;;;;;;;;;;4995873;28;20045;-52
2022/04/22 15:26:37;;;;;;;11.35;3.30;;;;;;;;;;4995769;28;20116;-51
2022/04/22 15:29:06;;;;;;;9.82;3.63;;;;;;;;;;4983167;28;20383;-54
2022/04/22 15:31:33;;;;;;;9.82;3.00;;;;;;;;;;4981504;28;20023;-50
2022/04/22 15:33:59;;;;;;;14.02;4.57;;;;;;;;;;4979524;28;20117;-49
2022/04/22 15:36:25;;;;;;;15.88;4.60;;;;;;;;;;4971866;28;20035;-51
2022/04/22 15:38:53;;;;;;;13.95;4.03;;;;;;;;;;4964476;28;20502;-57
2022/04/22 15:41:23;;;;;;;19.65;4.93;;;;;;;;;;4965222;28;20421;-51
2022/04/22 15:43:50;;;;;;;11.63;3.90;;;;;;;;;;4965987;28;20468;-54
2022/04/22 15:46:17;;;;;;;19.05;4.00;;;;;;;;;;4965822;28;20138;-52
2022/04/22 15:48:43;;;;;;;23.30;6.85;;;;;;;;;;4967976;28;20034;-50
2022/04/22 15:51:10;;;;;;;35.03;12.00;;;;;;;;;;4963584;28;20066;-52
2022/04/22 15:53:37;;;;;;;39.22;15.85;;;;;;;;;;4965054;28;20030;-51
2022/04/22 15:56:04;;;;;;;16.67;7.25;;;;;;;;;;4965799;28;20034;-51
2022/04/22 15:58:36;;;;;;;16.23;4.82;;;;;;;;;;4972436;28;20027;-56